Flight Track Log - Related Links

Times and Time Zones

All times are in EDT time to prevent confusion due to time zone crossing. See the FLG4048 flight status page for this flight to view local times or setup timezone preferences in your user account.

Time Position Orientation Groundspeed Altitude Reporting Facility
EDT Latitude Longitude Course Direction KTS MPH feet Rate Location/Type
Tue 08:03:32 PM 39.0333 -84.6667 90° East 157 181 1,300  Level Cincinnati TRACON
Tue 08:04:38 PM 39.0333 -84.6000 90° East 217 250 3,100 1,636 Climbing Cincinnati TRACON
Tue 08:05:44 PM 39.0333 -84.5000 90° East 272 313 4,900 1,450 Climbing Cincinnati TRACON
Tue 08:06:38 PM 39.0667 -84.4167 63° Northeast 295 339 6,000 1,947 Climbing Cincinnati TRACON
Tue 08:07:38 PM 39.0833 -84.3167 78° East 300 345 8,600 2,055 Climbing Cincinnati TRACON
Tue 08:09:04 PM 39.1317 -84.1753 66° East 307 353 11,000 1,622 Climbing Indianapolis Center
Tue 08:10:06 PM 39.1686 -84.0508 69° East 361 415 12,600 1,561 Climbing Indianapolis Center
Tue 08:11:07 PM 39.2067 -83.9267 68° East 371 427 14,200 1,561 Climbing Indianapolis Center
Tue 08:12:09 PM 39.2519 -83.8114 63° Northeast 382 440 15,800 1,463 Climbing Indianapolis Center
Tue 08:13:10 PM 39.2994 -83.6864 64° Northeast 386 444 17,200 1,366 Climbing Indianapolis Center
Tue 08:14:12 PM 39.3583 -83.5297 64° Northeast 401 461 18,600 1,161 Climbing Indianapolis Center
Tue 08:15:14 PM 39.4081 -83.3969 64° Northeast 409 471 19,600 1,024 Climbing Indianapolis Center
Tue 08:16:15 PM 39.4594 -83.2597 64° Northeast 420 483 20,700 976 Climbing Indianapolis Center
Tue 08:17:17 PM 39.5108 -83.1214 64° Northeast 425 489 21,600 780 Climbing Indianapolis Center
Tue 08:18:18 PM 39.5636 -82.9819 64° Northeast 429 494 22,300 683 Climbing Indianapolis Center
Tue 08:19:20 PM 39.6094 -82.8317 68° East 447 514 23,000 732 Climbing Indianapolis Center
Tue 08:20:21 PM 39.6225 -82.6669 84° East 457 526 23,800 732 Climbing Indianapolis Center
Tue 08:21:23 PM 39.6358 -82.5006 84° East 461 531 24,500 629 Climbing Indianapolis Center
Tue 08:22:25 PM 39.6492 -82.3364 84° East 458 527 25,100 634 Climbing Indianapolis Center
Tue 08:23:26 PM 39.6642 -82.1328 84° East 469 540 25,800 683 Climbing Indianapolis Center
Tue 08:24:28 PM 39.6761 -81.9636 85° East 469 540 26,500 683 Climbing Indianapolis Center
Tue 08:25:29 PM 39.6894 -81.7944 84° East 471 542 27,200 683 Climbing Indianapolis Center
Tue 08:26:31 PM 39.7008 -81.6267 85° East 467 537 27,900 677 Climbing Indianapolis Center
Tue 08:27:33 PM 39.7125 -81.4592 85° East 465 535 28,600 683 Climbing Indianapolis Center
Tue 08:28:34 PM 39.7678 -81.3142 64° Northeast 448 516 29,300 683 Climbing Indianapolis Center
Tue 08:29:36 PM 39.8261 -81.1753 61° Northeast 441 507 30,000 683 Climbing Indianapolis Center
Tue 08:30:37 PM 39.8842 -81.0347 62° Northeast 439 505 30,700 488 Climbing Indianapolis Center
Tue 08:31:39 PM 39.9422 -80.8939 62° Northeast 440 506 31,000 145 Climbing Indianapolis Center
Tue 08:32:41 PM 40.0044 -80.7439 62° Northeast 444 511 31,000  Level Indianapolis Center
Tue 08:33:42 PM 40.0669 -80.5961 61° Northeast 455 524 31,000  Level Indianapolis Center
Tue 08:34:44 PM 40.1386 -80.4203 62° Northeast 465 535 31,000  Level Indianapolis Center
Tue 08:35:46 PM 40.1997 -80.2747 61° Northeast 469 540 31,000  Level Indianapolis Center
Tue 08:36:47 PM 40.2636 -80.1158 62° Northeast 473 544 31,000  Level Indianapolis Center
Tue 08:38:03 PM 40.3406 -79.9294 62° Northeast 475 547 31,000  Level Cleveland Center
Tue 08:39:03 PM 40.4042 -79.7789 61° Northeast 475 547 31,000  Level Cleveland Center
Tue 08:40:03 PM 40.4656 -79.6253 62° Northeast 475 547 31,000 50 Level Cleveland Center
Tue 08:41:03 PM 40.5267 -79.4686 63° Northeast 475 547 31,100 450 Climbing Cleveland Center
Tue 08:42:03 PM 40.5875 -79.3172 62° Northeast 475 547 31,900 800 Climbing Cleveland Center
Tue 08:43:03 PM 40.6442 -79.1656 64° Northeast 470 541 32,700 550 Climbing Cleveland Center
Tue 08:44:03 PM 40.7028 -79.0164 63° Northeast 457 526 33,000 150 Climbing Cleveland Center
Tue 08:45:03 PM 40.7650 -78.8561 63° Northeast 452 520 33,000  Level Cleveland Center
Tue 08:47:07 PM 40.8850 -78.5506 62° Northeast 466 536 33,000  Level New York Center
Tue 08:48:08 PM 40.9450 -78.3978 62° Northeast 466 536 33,000  Level New York Center
Tue 08:49:07 PM 41.0008 -78.2419 65° Northeast 472 543 33,000  Level New York Center
Tue 08:50:08 PM 41.0606 -78.0861 63° Northeast 472 543 33,000  Level New York Center
Tue 08:51:07 PM 41.1178 -77.9322 64° Northeast 472 543 33,000  Level New York Center
Tue 08:52:08 PM 41.1769 -77.7786 63° Northeast 472 543 33,000  Level New York Center
Tue 08:53:08 PM 41.2361 -77.6219 63° Northeast 472 543 33,000  Level New York Center
Tue 08:54:06 PM 41.2950 -77.4678 63° Northeast 472 543 33,000  Level New York Center
Tue 08:55:08 PM 41.3514 -77.3156 64° Northeast 467 537 33,000  Level New York Center
Tue 08:56:09 PM 41.4081 -77.1553 65° Northeast 467 537 33,000  Level New York Center
Tue 08:57:06 PM 41.4661 -77.0028 63° Northeast 467 537 33,000  Level New York Center
Tue 08:58:07 PM 41.5172 -76.8608 64° Northeast 473 544 33,000  Level New York Center
Tue 08:59:08 PM 41.5800 -76.6917 64° Northeast 473 544 33,000  Level New York Center
Tue 09:00:06 PM 41.6356 -76.5356 64° Northeast 468 539 33,000  Level New York Center
Tue 09:01:07 PM 41.6908 -76.3819 64° Northeast 462 532 33,000  Level New York Center
Tue 09:02:49 PM 41.7839 -76.1267 64° Northeast 478 550 33,000 -74 Level Boston Center
Tue 09:03:50 PM 41.8389 -75.9708 65° Northeast 468 539 32,800 -1,082 Descending Boston Center
Tue 09:04:51 PM 41.8936 -75.8122 65° Northeast 468 539 30,800 -2,017 Descending Boston Center
Tue 09:05:49 PM 41.9483 -75.6533 65° Northeast 468 539 28,800 -1,881 Descending Boston Center
Tue 09:06:49 PM 41.9936 -75.5269 64° Northeast 468 539 27,100 -900 Descending Boston Center
Tue 09:07:49 PM 42.0572 -75.3286 67° East 473 544 27,000 -50 Descending Boston Center
Tue 09:08:50 PM 42.0844 -75.1564 78° East 467 537 27,000  Level Boston Center
Tue 09:09:50 PM 42.1011 -74.9781 83° East 464 534 27,000 -321 Level Boston Center
Tue 09:11:01 PM 42.1194 -74.7969 82° East 474 545 26,300 -773 Descending Boston Center
Tue 09:12:02 PM 42.1425 -74.5794 82° East 481 554 25,300 -893 Descending Boston Center
Tue 09:13:02 PM 42.1650 -74.3839 81° East 481 554 24,500 -800 Descending Boston Center
Tue 09:14:02 PM 42.1803 -74.2081 83° East 481 554 23,700 -807 Descending Boston Center
Tue 09:15:01 PM 42.1975 -74.0347 82° East 476 548 22,900 -807 Descending Boston Center
Tue 09:16:01 PM 42.2164 -73.8586 82° East 476 548 22,100 -1,041 Descending Boston Center
Tue 09:17:02 PM 42.2353 -73.6794 82° East 471 542 20,800 -2,015 Descending Boston Center
Tue 09:18:15 PM 42.2472 -73.5256 84° East 452 520 17,600 -3,298 Descending Boston Center
Tue 09:19:13 PM 42.2675 -73.3378 82° East 423 487 13,600 -3,282 Descending Boston Center
Tue 09:20:12 PM 42.2747 -73.2061 86° East 381 438 11,200 -1,750 Descending Boston Center
Tue 09:21:13 PM 42.2381 -73.1019 115° Southeast 299 344 10,100 -1,820 Descending Boston Center
Tue 09:22:14 PM 42.1781 -73.0172 134° Southeast 280 322 7,500 -2,380 Descending Boston Center
Tue 09:23:14 PM 42.1264 -72.9411 132° Southeast 290 334 5,300 -1,983 Descending Boston Center
Tue 09:24:15 PM 42.0764 -72.8792 137° Southeast 276 318 3,500 -1,172 Descending Boston Center
Tue 09:25:22 PM 42.0225 -72.8033 134° Southeast 217 250 2,800 -785 Descending Boston Center
Tue 09:26:25 PM 41.9894 -72.7586 135° Southeast 199 229 1,800 -950 Descending Boston Center
Tue 09:27:22 PM 41.9625 -72.7247 137° Southeast 119 137 900 -634 Descending Boston Center
Tue 09:28:28 PM 41.9375 -72.6911 135° Southeast 135 155 500 -364 Descending Boston Center

Login

Don't have an account? Register now (free) for customized features, flight alerts, and more!